Terminal Aerodrome Forecast
Issued by NWS

Home | Current Version | Previous Version | Graphics & Text | Print | Product List | Glossary On
Versions: 1 2 3 4 5 6 7 8 9 10 11 12 13
000
FTUS45 KVEF 022320
TAFDAG
TAF
KDAG 022320Z 0300/0324 04007KT P6SM FEW120
     FM030100 24015G23KT P6SM FEW120
     FM030500 27011KT P6SM SKC
     FM031800 30010KT P6SM FEW120=

USA.gov is the U.S. government's official web portal to all federal, state and local government web resources and services.